GOOYGABS

Guest
Details From GOOY - Dakar Leopold Sedar Senghor Intl
To GABS - Bamako Senou
Flight Number -
Tags generated
Created
Modified
Stats Distance 575 nm / 1,065 km
Max Altitude 35,000 ft / 10,668 m
Waypoints 9
Social Downloads 0
Likes 0
Share VATSIM

Download

Looking for another format? Having issues loading an existing format? Contact us
Advertisement - Login to hide

Notes

Basic altitude profile: - Ascent Rate: 2500ft/min - Ascent Speed: 250kts - Cruise Altitude: 25000ft - Cruise Speed: 420kts - Descent Rate: 1500ft/min - Descent Speed: 250kts Options: - Use NATs: no - Use PACOTS: no - Use low airways: no - Use high airways: yes

Route

GOOY YF UA601 BKO GABS

ID Type Via Altitude Latitude Longitude Leg Dist Tot Dist Heading (true) Name
O GOOY APT - 0 ft / 0 m 14.73971˚ -17.49023˚ - 0 nm - Dakar Leopold Sedar Senghor Intl
YF VOR - 300 ft / 91 m 14.74483˚ -17.47478˚ 0 nm 0 nm 71° / 71° DAKAR VOR-DME
DISNO FIX UA601 (AWY-HI) 35,000 ft / 10,668 m 14.04361˚ -14.81945˚ 160 nm 161 nm 105° / 106° -
TD VOR UA601 (AWY-HI) 35,000 ft / 10,668 m 13.72769˚ -13.66397˚ 69 nm 231 nm 106° / 106° TAMBACOUNDA VOR
DEMOL FIX UA601 (AWY-HI) 35,000 ft / 10,668 m 13.54250˚ -12.71778˚ 56 nm 287 nm 101° / 101° -
GATIL FIX UA601 (AWY-HI) 35,000 ft / 10,668 m 13.44778˚ -12.24250˚ 28 nm 315 nm 102° / 102° -
ENINO FIX UA601 (AWY-HI) 31,400 ft / 9,571 m 13.07861˚ -10.43111˚ 108 nm 423 nm 102° / 102° -
BKO VOR UA601 (AWY-HI) 23,500 ft / 7,163 m 12.54611˚ -7.93047˚ 149 nm 573 nm 102° / 103° BAMAKO/SENOU VOR-DME
O GABS APT - 0 ft / 0 m 12.53354˚ -7.94994˚ 1 nm 575 nm 237° / 237° Bamako Senou

Altitude Profile

Advertisement - Login to hide

Weather


0- 5 10 15 20 25 30 35+ Temperature / ° C

Clouds and Precipitation
Forecast for 2017-12-15 18:00 UTC. Updated an hour ago

Ground ~20,000 ft ~40,000 ft Winds

GOOY

Details ICAO GOOY (DKR)
Name Dakar Leopold Sedar Senghor Intl
Region Senegal
Timezone Africa/Dakar (UTC+0.0)
Stats Elevation 85 ft / 26 m (AMSL)
Location 14.739711° -17.490226°
Runways 2
Magnetic Variation 7.347° W

METAR

GOOY 151600Z 02010KT CAVOK 25/15 Q1013

Decode

TAF

TAF GOOY 151130Z 1512/1618 04012KT CAVOK= TAF GBYD 151130Z 1512/1618 05010KT CAVOK

Decode

Departure Runways

ID Width Length Bearing (true) Bearing (mag) Surface Threshold Offset Overrun Length
03 98 ft / 30 m 4,921 ft / 1,500 m 22.31° 29.66° Asphalt 0 ft / 0 m 98 ft / 30 m
18 148 ft / 45 m 11,511 ft / 3,509 m 172.57° 179.92° Asphalt 525 ft / 160 m 197 ft / 60 m
21 98 ft / 30 m 4,921 ft / 1,500 m 202.31° 209.66° Asphalt 0 ft / 0 m 1,590 ft / 485 m
36 148 ft / 45 m 11,511 ft / 3,509 m 352.57° 359.92° Asphalt 0 ft / 0 m 197 ft / 60 m

GABS

Details ICAO GABS (BKO)
Name Bamako Senou
Region Mali
Timezone Africa/Bamako (UTC+0.0)
Stats Elevation 1,246 ft / 380 m (AMSL)
Location 12.533544° -7.949943°
Runways 1
Magnetic Variation 4.161° W

METAR

GABS 151600Z 02009KT 360V060 CAVOK 30/01 Q1013 NOSIG

Decode

TAF

TAF GABS 151100Z 1512/1618 02010KT 8000 NSC PROB30 TEMPO 1606/1610 4500 HZ

Decode

Destination Runways

ID Width Length Bearing (true) Bearing (mag) Surface Threshold Offset Overrun Length
06 148 ft / 45 m 8,888 ft / 2,709 m 56.51° 60.67° Asphalt 0 ft / 0 m 327 ft / 100 m
24 148 ft / 45 m 8,888 ft / 2,709 m 236.51° 240.67° Asphalt 0 ft / 0 m 327 ft / 100 m

Approach Navaids

Runway Type Ident Frequency Range Bearing (true) Bearing (mag) Slope Elevation
06 Localiser IBS 109.50 MHz 18 nm / 33 km 56.53° 60.69° - 1,246 ft / 380 m (AMSL)
06 Glidescope IBS 109.50 MHz 10 nm / 19 km 56.51° 60.67° 3.00° 1,246 ft / 380 m (AMSL)
06 DME IBS 109.50 MHz 18 nm / 33 km - - - 1,214 ft / 370 m (AMSL)

Popular Alternatives